sensor_id;sensor_type;location;lat;lon;timestamp;P1;durP1;ratioP1;P2;durP2;ratioP2
41572;SDS011;27286;47.870;19.006;2024-03-02T00:00:20;24.98;;;12.25;;
41572;SDS011;27286;47.870;19.006;2024-03-02T00:02:47;23.88;;;13.23;;
41572;SDS011;27286;47.870;19.006;2024-03-02T00:05:17;23.23;;;14.65;;
41572;SDS011;27286;47.870;19.006;2024-03-02T00:08:02;23.48;;;13.50;;
41572;SDS011;27286;47.870;19.006;2024-03-02T00:10:37;30.10;;;14.60;;
41572;SDS011;27286;47.870;19.006;2024-03-02T00:13:06;22.92;;;13.77;;
41572;SDS011;27286;47.870;19.006;2024-03-02T00:18:24;26.90;;;14.00;;
41572;SDS011;27286;47.870;19.006;2024-03-02T00:20:55;25.20;;;13.48;;
41572;SDS011;27286;47.870;19.006;2024-03-02T00:23:26;21.80;;;13.13;;
41572;SDS011;27286;47.870;19.006;2024-03-02T00:25:54;21.20;;;12.50;;
41572;SDS011;27286;47.870;19.006;2024-03-02T00:30:51;23.13;;;13.43;;
41572;SDS011;27286;47.870;19.006;2024-03-02T00:33:19;22.33;;;14.18;;
41572;SDS011;27286;47.870;19.006;2024-03-02T00:35:46;22.00;;;13.73;;
41572;SDS011;27286;47.870;19.006;2024-03-02T00:38:12;26.80;;;14.48;;
41572;SDS011;27286;47.870;19.006;2024-03-02T00:40:40;23.88;;;13.85;;
41572;SDS011;27286;47.870;19.006;2024-03-02T00:43:06;20.05;;;13.20;;
41572;SDS011;27286;47.870;19.006;2024-03-02T00:45:54;26.98;;;13.40;;
41572;SDS011;27286;47.870;19.006;2024-03-02T00:48:20;29.48;;;12.90;;
41572;SDS011;27286;47.870;19.006;2024-03-02T00:50:45;19.98;;;12.27;;
41572;SDS011;27286;47.870;19.006;2024-03-02T00:53:11;19.10;;;13.48;;
41572;SDS011;27286;47.870;19.006;2024-03-02T00:55:37;21.77;;;12.95;;
41572;SDS011;27286;47.870;19.006;2024-03-02T00:58:04;21.73;;;13.50;;
41572;SDS011;27286;47.870;19.006;2024-03-02T01:00:30;25.40;;;13.38;;
41572;SDS011;27286;47.870;19.006;2024-03-02T01:02:55;24.73;;;14.07;;
41572;SDS011;27286;47.870;19.006;2024-03-02T01:05:20;26.88;;;14.75;;
41572;SDS011;27286;47.870;19.006;2024-03-02T01:07:46;23.58;;;13.63;;
41572;SDS011;27286;47.870;19.006;2024-03-02T01:10:11;21.05;;;13.57;;
41572;SDS011;27286;47.870;19.006;2024-03-02T01:12:37;22.92;;;15.23;;
41572;SDS011;27286;47.870;19.006;2024-03-02T01:15:02;24.98;;;13.13;;
41572;SDS011;27286;47.870;19.006;2024-03-02T01:17:31;22.88;;;13.45;;
41572;SDS011;27286;47.870;19.006;2024-03-02T01:19:56;24.73;;;13.93;;
41572;SDS011;27286;47.870;19.006;2024-03-02T01:22:22;22.15;;;13.70;;
41572;SDS011;27286;47.870;19.006;2024-03-02T01:24:50;24.83;;;13.52;;
41572;SDS011;27286;47.870;19.006;2024-03-02T01:27:16;20.88;;;13.73;;
41572;SDS011;27286;47.870;19.006;2024-03-02T01:29:41;26.98;;;14.02;;
41572;SDS011;27286;47.870;19.006;2024-03-02T01:32:06;27.27;;;13.73;;
41572;SDS011;27286;47.870;19.006;2024-03-02T01:34:32;25.80;;;13.65;;
41572;SDS011;27286;47.870;19.006;2024-03-02T01:36:57;24.50;;;14.75;;
41572;SDS011;27286;47.870;19.006;2024-03-02T01:39:23;28.70;;;14.27;;
41572;SDS011;27286;47.870;19.006;2024-03-02T01:41:48;25.00;;;15.10;;
41572;SDS011;27286;47.870;19.006;2024-03-02T01:44:13;25.30;;;14.60;;
41572;SDS011;27286;47.870;19.006;2024-03-02T01:46:39;23.75;;;14.70;;
41572;SDS011;27286;47.870;19.006;2024-03-02T01:49:04;28.25;;;16.27;;
41572;SDS011;27286;47.870;19.006;2024-03-02T01:51:31;28.45;;;16.52;;
41572;SDS011;27286;47.870;19.006;2024-03-02T01:53:56;28.38;;;15.70;;
41572;SDS011;27286;47.870;19.006;2024-03-02T01:56:22;21.63;;;14.18;;
41572;SDS011;27286;47.870;19.006;2024-03-02T01:58:47;27.00;;;14.68;;
41572;SDS011;27286;47.870;19.006;2024-03-02T02:01:13;24.13;;;14.27;;
41572;SDS011;27286;47.870;19.006;2024-03-02T02:03:38;24.55;;;14.80;;
41572;SDS011;27286;47.870;19.006;2024-03-02T02:06:05;24.95;;;14.93;;
41572;SDS011;27286;47.870;19.006;2024-03-02T02:08:32;24.45;;;14.57;;
41572;SDS011;27286;47.870;19.006;2024-03-02T02:10:57;28.02;;;14.40;;
41572;SDS011;27286;47.870;19.006;2024-03-02T02:13:23;26.55;;;14.05;;
41572;SDS011;27286;47.870;19.006;2024-03-02T02:15:48;23.83;;;14.13;;
41572;SDS011;27286;47.870;19.006;2024-03-02T02:18:13;22.15;;;13.63;;
41572;SDS011;27286;47.870;19.006;2024-03-02T02:20:39;24.23;;;14.85;;
41572;SDS011;27286;47.870;19.006;2024-03-02T02:23:04;22.40;;;13.85;;
41572;SDS011;27286;47.870;19.006;2024-03-02T02:25:35;21.83;;;13.60;;
41572;SDS011;27286;47.870;19.006;2024-03-02T02:28:01;28.08;;;14.95;;
41572;SDS011;27286;47.870;19.006;2024-03-02T02:30:30;22.67;;;14.77;;
41572;SDS011;27286;47.870;19.006;2024-03-02T02:32:56;21.90;;;13.50;;
41572;SDS011;27286;47.870;19.006;2024-03-02T02:35:22;30.10;;;16.10;;
41572;SDS011;27286;47.870;19.006;2024-03-02T02:37:49;25.83;;;14.95;;
41572;SDS011;27286;47.870;19.006;2024-03-02T02:40:15;27.60;;;15.10;;
41572;SDS011;27286;47.870;19.006;2024-03-02T02:42:41;26.17;;;16.95;;
41572;SDS011;27286;47.870;19.006;2024-03-02T02:45:07;26.35;;;16.08;;
41572;SDS011;27286;47.870;19.006;2024-03-02T02:47:34;26.15;;;15.57;;
41572;SDS011;27286;47.870;19.006;2024-03-02T02:50:03;35.78;;;17.05;;
41572;SDS011;27286;47.870;19.006;2024-03-02T02:52:32;23.42;;;15.63;;
41572;SDS011;27286;47.870;19.006;2024-03-02T02:55:04;28.42;;;16.67;;
41572;SDS011;27286;47.870;19.006;2024-03-02T02:57:34;27.38;;;16.08;;
41572;SDS011;27286;47.870;19.006;2024-03-02T03:00:03;23.75;;;15.60;;
41572;SDS011;27286;47.870;19.006;2024-03-02T03:02:30;29.05;;;15.45;;
41572;SDS011;27286;47.870;19.006;2024-03-02T03:04:56;27.45;;;16.15;;
41572;SDS011;27286;47.870;19.006;2024-03-02T03:07:22;27.38;;;16.08;;
41572;SDS011;27286;47.870;19.006;2024-03-02T03:09:48;23.92;;;16.65;;
41572;SDS011;27286;47.870;19.006;2024-03-02T03:12:13;26.95;;;15.68;;
41572;SDS011;27286;47.870;19.006;2024-03-02T03:14:40;28.98;;;16.13;;
41572;SDS011;27286;47.870;19.006;2024-03-02T03:17:06;24.50;;;15.23;;
41572;SDS011;27286;47.870;19.006;2024-03-02T03:19:33;26.65;;;15.68;;
41572;SDS011;27286;47.870;19.006;2024-03-02T03:21:58;24.27;;;16.60;;
41572;SDS011;27286;47.870;19.006;2024-03-02T03:24:24;26.98;;;16.95;;
41572;SDS011;27286;47.870;19.006;2024-03-02T03:26:49;28.60;;;15.50;;
41572;SDS011;27286;47.870;19.006;2024-03-02T03:29:14;26.52;;;16.75;;
41572;SDS011;27286;47.870;19.006;2024-03-02T03:31:40;30.80;;;16.35;;
41572;SDS011;27286;47.870;19.006;2024-03-02T03:34:05;26.85;;;15.32;;
41572;SDS011;27286;47.870;19.006;2024-03-02T03:36:30;25.92;;;16.88;;
41572;SDS011;27286;47.870;19.006;2024-03-02T03:38:56;29.10;;;15.90;;
41572;SDS011;27286;47.870;19.006;2024-03-02T03:41:23;27.05;;;15.90;;
41572;SDS011;27286;47.870;19.006;2024-03-02T03:43:49;24.77;;;15.77;;
41572;SDS011;27286;47.870;19.006;2024-03-02T03:46:14;24.25;;;15.00;;
41572;SDS011;27286;47.870;19.006;2024-03-02T03:48:40;25.10;;;15.10;;
41572;SDS011;27286;47.870;19.006;2024-03-02T03:51:07;25.67;;;14.98;;
41572;SDS011;27286;47.870;19.006;2024-03-02T03:53:32;25.20;;;15.32;;
41572;SDS011;27286;47.870;19.006;2024-03-02T03:55:57;25.15;;;16.63;;
41572;SDS011;27286;47.870;19.006;2024-03-02T03:58:23;26.05;;;15.80;;
41572;SDS011;27286;47.870;19.006;2024-03-02T04:00:48;26.27;;;16.42;;
41572;SDS011;27286;47.870;19.006;2024-03-02T04:03:13;25.75;;;16.13;;
41572;SDS011;27286;47.870;19.006;2024-03-02T04:05:39;23.10;;;15.23;;
41572;SDS011;27286;47.870;19.006;2024-03-02T04:08:04;23.65;;;15.43;;
41572;SDS011;27286;47.870;19.006;2024-03-02T04:10:30;25.85;;;15.15;;
41572;SDS011;27286;47.870;19.006;2024-03-02T04:12:55;25.85;;;16.88;;
41572;SDS011;27286;47.870;19.006;2024-03-02T04:15:21;31.40;;;17.60;;
41572;SDS011;27286;47.870;19.006;2024-03-02T04:17:48;24.02;;;14.75;;
41572;SDS011;27286;47.870;19.006;2024-03-02T04:20:13;23.15;;;15.30;;
41572;SDS011;27286;47.870;19.006;2024-03-02T04:22:39;21.33;;;15.20;;
41572;SDS011;27286;47.870;19.006;2024-03-02T04:25:04;26.85;;;15.63;;
41572;SDS011;27286;47.870;19.006;2024-03-02T04:27:30;27.42;;;15.05;;
41572;SDS011;27286;47.870;19.006;2024-03-02T04:29:59;24.13;;;16.52;;
41572;SDS011;27286;47.870;19.006;2024-03-02T04:32:25;22.35;;;14.88;;
41572;SDS011;27286;47.870;19.006;2024-03-02T04:34:52;26.25;;;15.05;;
41572;SDS011;27286;47.870;19.006;2024-03-02T04:37:17;27.75;;;16.52;;
41572;SDS011;27286;47.870;19.006;2024-03-02T04:39:42;21.60;;;14.93;;
41572;SDS011;27286;47.870;19.006;2024-03-02T04:42:08;26.35;;;15.45;;
41572;SDS011;27286;47.870;19.006;2024-03-02T04:44:33;25.10;;;17.55;;
41572;SDS011;27286;47.870;19.006;2024-03-02T04:46:59;32.33;;;15.88;;
41572;SDS011;27286;47.870;19.006;2024-03-02T04:49:24;28.23;;;18.17;;
41572;SDS011;27286;47.870;19.006;2024-03-02T04:51:50;30.13;;;18.52;;
41572;SDS011;27286;47.870;19.006;2024-03-02T04:54:15;25.67;;;17.65;;
41572;SDS011;27286;47.870;19.006;2024-03-02T04:56:41;27.05;;;18.10;;
41572;SDS011;27286;47.870;19.006;2024-03-02T04:59:15;25.75;;;17.20;;
41572;SDS011;27286;47.870;19.006;2024-03-02T05:01:42;31.30;;;17.02;;
41572;SDS011;27286;47.870;19.006;2024-03-02T05:04:07;25.75;;;16.58;;
41572;SDS011;27286;47.870;19.006;2024-03-02T05:06:33;22.90;;;16.80;;
41572;SDS011;27286;47.870;19.006;2024-03-02T05:08:58;26.73;;;16.70;;
41572;SDS011;27286;47.870;19.006;2024-03-02T05:11:24;27.65;;;16.83;;
41572;SDS011;27286;47.870;19.006;2024-03-02T05:14:05;30.05;;;19.38;;
41572;SDS011;27286;47.870;19.006;2024-03-02T05:16:36;28.50;;;18.52;;
41572;SDS011;27286;47.870;19.006;2024-03-02T05:19:03;31.42;;;19.45;;
41572;SDS011;27286;47.870;19.006;2024-03-02T05:21:31;27.20;;;17.08;;
41572;SDS011;27286;47.870;19.006;2024-03-02T05:23:57;27.92;;;19.05;;
41572;SDS011;27286;47.870;19.006;2024-03-02T05:26:22;28.83;;;18.67;;
41572;SDS011;27286;47.870;19.006;2024-03-02T05:28:47;27.45;;;18.40;;
41572;SDS011;27286;47.870;19.006;2024-03-02T05:31:16;34.88;;;19.17;;
41572;SDS011;27286;47.870;19.006;2024-03-02T05:33:42;31.08;;;18.35;;
41572;SDS011;27286;47.870;19.006;2024-03-02T05:36:08;29.50;;;18.83;;
41572;SDS011;27286;47.870;19.006;2024-03-02T05:38:36;29.33;;;18.02;;
41572;SDS011;27286;47.870;19.006;2024-03-02T05:41:02;31.42;;;18.70;;
41572;SDS011;27286;47.870;19.006;2024-03-02T05:43:28;27.63;;;18.65;;
41572;SDS011;27286;47.870;19.006;2024-03-02T05:45:53;32.22;;;19.48;;
41572;SDS011;27286;47.870;19.006;2024-03-02T05:48:19;29.15;;;19.13;;
41572;SDS011;27286;47.870;19.006;2024-03-02T05:50:44;30.52;;;19.67;;
41572;SDS011;27286;47.870;19.006;2024-03-02T05:53:10;29.40;;;18.45;;
41572;SDS011;27286;47.870;19.006;2024-03-02T05:55:35;30.25;;;19.08;;
41572;SDS011;27286;47.870;19.006;2024-03-02T05:58:01;29.92;;;19.33;;
41572;SDS011;27286;47.870;19.006;2024-03-02T06:00:32;27.88;;;17.63;;
41572;SDS011;27286;47.870;19.006;2024-03-02T06:02:58;25.52;;;17.25;;
41572;SDS011;27286;47.870;19.006;2024-03-02T06:05:24;28.25;;;17.00;;
41572;SDS011;27286;47.870;19.006;2024-03-02T06:07:49;27.10;;;16.67;;
41572;SDS011;27286;47.870;19.006;2024-03-02T06:10:15;25.38;;;17.52;;
41572;SDS011;27286;47.870;19.006;2024-03-02T06:12:41;28.02;;;18.67;;
41572;SDS011;27286;47.870;19.006;2024-03-02T06:15:07;26.60;;;17.85;;
41572;SDS011;27286;47.870;19.006;2024-03-02T06:17:32;28.80;;;18.38;;
41572;SDS011;27286;47.870;19.006;2024-03-02T06:20:00;30.15;;;20.23;;
41572;SDS011;27286;47.870;19.006;2024-03-02T06:22:25;32.88;;;20.42;;
41572;SDS011;27286;47.870;19.006;2024-03-02T06:24:51;30.17;;;20.65;;
41572;SDS011;27286;47.870;19.006;2024-03-02T06:27:16;30.02;;;19.92;;
41572;SDS011;27286;47.870;19.006;2024-03-02T06:29:42;25.58;;;18.35;;
41572;SDS011;27286;47.870;19.006;2024-03-02T06:32:07;26.98;;;18.15;;
41572;SDS011;27286;47.870;19.006;2024-03-02T06:34:33;28.70;;;18.13;;
41572;SDS011;27286;47.870;19.006;2024-03-02T06:36:58;29.80;;;19.67;;
41572;SDS011;27286;47.870;19.006;2024-03-02T06:39:23;29.85;;;20.42;;
41572;SDS011;27286;47.870;19.006;2024-03-02T06:41:49;31.48;;;19.88;;
41572;SDS011;27286;47.870;19.006;2024-03-02T06:44:14;29.92;;;18.80;;
41572;SDS011;27286;47.870;19.006;2024-03-02T06:46:39;30.92;;;21.10;;
41572;SDS011;27286;47.870;19.006;2024-03-02T06:49:05;35.80;;;20.48;;
41572;SDS011;27286;47.870;19.006;2024-03-02T06:51:30;32.05;;;19.35;;
41572;SDS011;27286;47.870;19.006;2024-03-02T06:53:56;32.40;;;19.50;;
41572;SDS011;27286;47.870;19.006;2024-03-02T06:56:21;36.55;;;20.35;;
41572;SDS011;27286;47.870;19.006;2024-03-02T06:58:46;28.98;;;18.58;;
41572;SDS011;27286;47.870;19.006;2024-03-02T07:01:12;31.23;;;18.25;;
41572;SDS011;27286;47.870;19.006;2024-03-02T07:03:38;28.27;;;18.70;;
41572;SDS011;27286;47.870;19.006;2024-03-02T07:06:04;29.52;;;19.90;;
41572;SDS011;27286;47.870;19.006;2024-03-02T07:08:30;29.05;;;18.38;;
41572;SDS011;27286;47.870;19.006;2024-03-02T07:10:56;27.45;;;18.45;;
41572;SDS011;27286;47.870;19.006;2024-03-02T07:13:22;31.02;;;17.92;;
41572;SDS011;27286;47.870;19.006;2024-03-02T07:15:47;28.42;;;18.00;;
41572;SDS011;27286;47.870;19.006;2024-03-02T07:18:28;31.40;;;20.25;;
41572;SDS011;27286;47.870;19.006;2024-03-02T07:20:57;23.77;;;18.00;;
41572;SDS011;27286;47.870;19.006;2024-03-02T07:23:24;28.95;;;19.75;;
41572;SDS011;27286;47.870;19.006;2024-03-02T07:25:52;27.33;;;18.60;;
41572;SDS011;27286;47.870;19.006;2024-03-02T07:28:20;28.60;;;18.55;;
41572;SDS011;27286;47.870;19.006;2024-03-02T07:30:45;27.23;;;18.55;;
41572;SDS011;27286;47.870;19.006;2024-03-02T07:33:11;27.95;;;18.55;;
41572;SDS011;27286;47.870;19.006;2024-03-02T07:35:36;28.10;;;18.52;;
41572;SDS011;27286;47.870;19.006;2024-03-02T07:38:02;29.60;;;17.92;;
41572;SDS011;27286;47.870;19.006;2024-03-02T07:40:28;37.53;;;20.27;;
41572;SDS011;27286;47.870;19.006;2024-03-02T07:42:54;32.65;;;19.95;;
41572;SDS011;27286;47.870;19.006;2024-03-02T07:45:19;30.45;;;18.55;;
41572;SDS011;27286;47.870;19.006;2024-03-02T07:47:45;31.92;;;19.17;;
41572;SDS011;27286;47.870;19.006;2024-03-02T07:50:11;28.40;;;18.30;;
41572;SDS011;27286;47.870;19.006;2024-03-02T07:52:37;29.73;;;18.38;;
41572;SDS011;27286;47.870;19.006;2024-03-02T07:55:02;26.95;;;18.05;;
41572;SDS011;27286;47.870;19.006;2024-03-02T07:57:28;28.42;;;18.83;;
41572;SDS011;27286;47.870;19.006;2024-03-02T07:59:53;28.92;;;19.27;;
41572;SDS011;27286;47.870;19.006;2024-03-02T08:02:19;30.50;;;19.65;;
41572;SDS011;27286;47.870;19.006;2024-03-02T08:04:45;29.45;;;18.45;;
41572;SDS011;27286;47.870;19.006;2024-03-02T08:07:11;31.98;;;19.08;;
41572;SDS011;27286;47.870;19.006;2024-03-02T08:09:36;29.02;;;19.08;;
41572;SDS011;27286;47.870;19.006;2024-03-02T08:12:02;28.10;;;18.38;;
41572;SDS011;27286;47.870;19.006;2024-03-02T08:14:27;33.28;;;17.27;;
41572;SDS011;27286;47.870;19.006;2024-03-02T08:16:53;33.47;;;18.42;;
41572;SDS011;27286;47.870;19.006;2024-03-02T08:19:18;25.50;;;19.10;;
41572;SDS011;27286;47.870;19.006;2024-03-02T08:21:44;30.23;;;19.00;;
41572;SDS011;27286;47.870;19.006;2024-03-02T08:24:09;28.08;;;19.70;;
41572;SDS011;27286;47.870;19.006;2024-03-02T08:26:35;35.08;;;19.30;;
41572;SDS011;27286;47.870;19.006;2024-03-02T08:29:00;32.35;;;18.80;;
41572;SDS011;27286;47.870;19.006;2024-03-02T08:31:32;29.88;;;18.40;;
41572;SDS011;27286;47.870;19.006;2024-03-02T08:33:57;28.92;;;19.38;;
41572;SDS011;27286;47.870;19.006;2024-03-02T08:36:23;30.60;;;20.00;;
41572;SDS011;27286;47.870;19.006;2024-03-02T08:38:49;28.60;;;18.17;;
41572;SDS011;27286;47.870;19.006;2024-03-02T08:41:15;27.75;;;18.77;;
41572;SDS011;27286;47.870;19.006;2024-03-02T08:43:41;27.90;;;20.17;;
41572;SDS011;27286;47.870;19.006;2024-03-02T08:46:07;29.10;;;18.50;;
41572;SDS011;27286;47.870;19.006;2024-03-02T08:48:33;32.15;;;18.65;;
41572;SDS011;27286;47.870;19.006;2024-03-02T08:50:59;25.08;;;18.88;;
41572;SDS011;27286;47.870;19.006;2024-03-02T08:53:24;27.27;;;19.42;;
41572;SDS011;27286;47.870;19.006;2024-03-02T08:55:50;30.27;;;18.70;;
41572;SDS011;27286;47.870;19.006;2024-03-02T08:58:15;27.00;;;18.80;;
41572;SDS011;27286;47.870;19.006;2024-03-02T09:00:41;29.13;;;18.13;;
41572;SDS011;27286;47.870;19.006;2024-03-02T09:03:07;27.38;;;17.90;;
41572;SDS011;27286;47.870;19.006;2024-03-02T09:05:32;30.88;;;19.23;;
41572;SDS011;27286;47.870;19.006;2024-03-02T09:07:58;35.42;;;19.33;;
41572;SDS011;27286;47.870;19.006;2024-03-02T09:10:23;30.75;;;18.92;;
41572;SDS011;27286;47.870;19.006;2024-03-02T09:12:48;31.95;;;19.98;;
41572;SDS011;27286;47.870;19.006;2024-03-02T09:15:14;28.05;;;17.63;;
41572;SDS011;27286;47.870;19.006;2024-03-02T09:17:40;30.40;;;18.17;;
41572;SDS011;27286;47.870;19.006;2024-03-02T09:20:05;26.90;;;18.27;;
41572;SDS011;27286;47.870;19.006;2024-03-02T09:22:31;27.73;;;18.30;;
41572;SDS011;27286;47.870;19.006;2024-03-02T09:24:57;29.38;;;19.60;;
41572;SDS011;27286;47.870;19.006;2024-03-02T09:27:23;24.25;;;17.75;;
41572;SDS011;27286;47.870;19.006;2024-03-02T09:29:48;25.52;;;17.10;;
41572;SDS011;27286;47.870;19.006;2024-03-02T09:32:14;26.80;;;17.63;;
41572;SDS011;27286;47.870;19.006;2024-03-02T09:34:39;27.73;;;19.08;;
41572;SDS011;27286;47.870;19.006;2024-03-02T09:37:05;26.75;;;17.65;;
41572;SDS011;27286;47.870;19.006;2024-03-02T09:39:31;26.38;;;18.13;;
41572;SDS011;27286;47.870;19.006;2024-03-02T09:41:57;25.98;;;18.27;;
41572;SDS011;27286;47.870;19.006;2024-03-02T09:44:23;31.90;;;20.27;;
41572;SDS011;27286;47.870;19.006;2024-03-02T09:46:50;29.63;;;19.38;;
41572;SDS011;27286;47.870;19.006;2024-03-02T09:49:16;26.55;;;19.20;;
41572;SDS011;27286;47.870;19.006;2024-03-02T09:51:43;29.55;;;17.80;;
41572;SDS011;27286;47.870;19.006;2024-03-02T09:54:12;27.77;;;18.38;;
41572;SDS011;27286;47.870;19.006;2024-03-02T09:56:38;30.95;;;19.75;;
41572;SDS011;27286;47.870;19.006;2024-03-02T09:59:04;32.15;;;21.45;;
41572;SDS011;27286;47.870;19.006;2024-03-02T10:01:30;30.02;;;19.02;;
41572;SDS011;27286;47.870;19.006;2024-03-02T10:03:57;27.15;;;19.33;;
41572;SDS011;27286;47.870;19.006;2024-03-02T10:06:25;28.33;;;17.42;;
41572;SDS011;27286;47.870;19.006;2024-03-02T10:08:52;25.13;;;17.20;;
41572;SDS011;27286;47.870;19.006;2024-03-02T10:14:12;25.52;;;17.33;;
41572;SDS011;27286;47.870;19.006;2024-03-02T10:16:42;26.77;;;17.67;;
41572;SDS011;27286;47.870;19.006;2024-03-02T10:19:15;21.17;;;15.88;;
41572;SDS011;27286;47.870;19.006;2024-03-02T10:21:41;21.52;;;15.02;;
41572;SDS011;27286;47.870;19.006;2024-03-02T10:24:07;20.63;;;15.27;;
41572;SDS011;27286;47.870;19.006;2024-03-02T10:26:32;23.50;;;15.60;;
41572;SDS011;27286;47.870;19.006;2024-03-02T10:28:58;17.00;;;14.35;;
41572;SDS011;27286;47.870;19.006;2024-03-02T10:31:24;20.33;;;15.27;;
41572;SDS011;27286;47.870;19.006;2024-03-02T10:33:53;18.85;;;14.52;;
41572;SDS011;27286;47.870;19.006;2024-03-02T10:36:19;20.80;;;16.17;;
41572;SDS011;27286;47.870;19.006;2024-03-02T10:38:45;21.50;;;13.63;;
41572;SDS011;27286;47.870;19.006;2024-03-02T10:41:16;28.45;;;19.85;;
41572;SDS011;27286;47.870;19.006;2024-03-02T10:43:43;19.63;;;13.88;;
41572;SDS011;27286;47.870;19.006;2024-03-02T10:46:08;20.05;;;13.43;;
41572;SDS011;27286;47.870;19.006;2024-03-02T10:48:36;18.80;;;12.73;;
41572;SDS011;27286;47.870;19.006;2024-03-02T10:51:06;16.70;;;11.57;;
41572;SDS011;27286;47.870;19.006;2024-03-02T10:53:32;21.38;;;17.05;;
41572;SDS011;27286;47.870;19.006;2024-03-02T10:55:57;18.67;;;11.10;;
41572;SDS011;27286;47.870;19.006;2024-03-02T10:58:27;18.58;;;13.70;;
41572;SDS011;27286;47.870;19.006;2024-03-02T11:00:58;14.80;;;11.20;;
41572;SDS011;27286;47.870;19.006;2024-03-02T11:03:29;13.88;;;11.20;;
41572;SDS011;27286;47.870;19.006;2024-03-02T11:05:58;17.35;;;11.82;;
41572;SDS011;27286;47.870;19.006;2024-03-02T11:08:25;13.48;;;10.50;;
41572;SDS011;27286;47.870;19.006;2024-03-02T11:10:58;15.55;;;11.43;;
41572;SDS011;27286;47.870;19.006;2024-03-02T11:13:32;16.02;;;11.25;;
41572;SDS011;27286;47.870;19.006;2024-03-02T11:16:04;19.85;;;13.27;;
41572;SDS011;27286;47.870;19.006;2024-03-02T11:18:35;16.40;;;11.82;;
41572;SDS011;27286;47.870;19.006;2024-03-02T11:21:01;17.90;;;12.48;;
41572;SDS011;27286;47.870;19.006;2024-03-02T11:23:31;15.10;;;11.70;;
41572;SDS011;27286;47.870;19.006;2024-03-02T11:28:46;13.35;;;10.25;;
41572;SDS011;27286;47.870;19.006;2024-03-02T11:31:12;11.32;;;7.30;;
41572;SDS011;27286;47.870;19.006;2024-03-02T11:33:38;11.52;;;7.63;;
41572;SDS011;27286;47.870;19.006;2024-03-02T11:36:03;9.57;;;7.95;;
41572;SDS011;27286;47.870;19.006;2024-03-02T11:38:32;9.65;;;7.70;;
41572;SDS011;27286;47.870;19.006;2024-03-02T11:41:02;10.88;;;7.20;;
41572;SDS011;27286;47.870;19.006;2024-03-02T11:43:32;10.82;;;8.25;;
41572;SDS011;27286;47.870;19.006;2024-03-02T11:46:03;15.05;;;10.82;;
41572;SDS011;27286;47.870;19.006;2024-03-02T11:48:32;10.52;;;8.35;;
41572;SDS011;27286;47.870;19.006;2024-03-02T11:50:58;11.60;;;8.73;;
41572;SDS011;27286;47.870;19.006;2024-03-02T11:53:25;8.77;;;6.65;;
41572;SDS011;27286;47.870;19.006;2024-03-02T11:55:53;7.72;;;5.95;;
41572;SDS011;27286;47.870;19.006;2024-03-02T11:58:21;11.65;;;6.53;;
41572;SDS011;27286;47.870;19.006;2024-03-02T12:00:55;9.73;;;6.57;;
41572;SDS011;27286;47.870;19.006;2024-03-02T12:03:24;12.38;;;8.32;;
41572;SDS011;27286;47.870;19.006;2024-03-02T12:05:51;12.40;;;7.70;;
41572;SDS011;27286;47.870;19.006;2024-03-02T12:08:18;8.63;;;6.53;;
41572;SDS011;27286;47.870;19.006;2024-03-02T12:10:43;12.30;;;9.32;;
41572;SDS011;27286;47.870;19.006;2024-03-02T12:13:21;11.35;;;8.15;;
41572;SDS011;27286;47.870;19.006;2024-03-02T12:15:47;10.50;;;8.75;;
41572;SDS011;27286;47.870;19.006;2024-03-02T12:18:13;9.80;;;6.72;;
41572;SDS011;27286;47.870;19.006;2024-03-02T12:20:38;9.05;;;6.97;;
41572;SDS011;27286;47.870;19.006;2024-03-02T12:23:04;10.93;;;6.75;;
41572;SDS011;27286;47.870;19.006;2024-03-02T12:25:30;7.57;;;6.07;;
41572;SDS011;27286;47.870;19.006;2024-03-02T12:27:59;9.93;;;7.65;;
41572;SDS011;27286;47.870;19.006;2024-03-02T12:30:27;10.13;;;6.97;;
41572;SDS011;27286;47.870;19.006;2024-03-02T12:32:56;9.63;;;6.78;;
41572;SDS011;27286;47.870;19.006;2024-03-02T12:35:21;7.63;;;5.72;;
41572;SDS011;27286;47.870;19.006;2024-03-02T12:37:51;9.27;;;5.50;;
41572;SDS011;27286;47.870;19.006;2024-03-02T12:40:18;7.88;;;5.72;;
41572;SDS011;27286;47.870;19.006;2024-03-02T12:42:44;8.00;;;5.93;;
41572;SDS011;27286;47.870;19.006;2024-03-02T12:45:11;7.78;;;6.35;;
41572;SDS011;27286;47.870;19.006;2024-03-02T12:47:37;8.40;;;6.55;;
41572;SDS011;27286;47.870;19.006;2024-03-02T12:50:04;7.53;;;5.97;;
41572;SDS011;27286;47.870;19.006;2024-03-02T12:52:30;7.30;;;5.53;;
41572;SDS011;27286;47.870;19.006;2024-03-02T12:55:05;8.77;;;6.68;;
41572;SDS011;27286;47.870;19.006;2024-03-02T12:57:31;15.35;;;9.63;;
41572;SDS011;27286;47.870;19.006;2024-03-02T13:00:02;11.90;;;8.05;;
41572;SDS011;27286;47.870;19.006;2024-03-02T13:02:36;11.82;;;8.60;;
41572;SDS011;27286;47.870;19.006;2024-03-02T13:05:06;9.57;;;7.72;;
41572;SDS011;27286;47.870;19.006;2024-03-02T13:07:36;9.07;;;6.72;;
41572;SDS011;27286;47.870;19.006;2024-03-02T13:10:01;11.52;;;9.30;;
41572;SDS011;27286;47.870;19.006;2024-03-02T13:12:27;7.80;;;6.47;;
41572;SDS011;27286;47.870;19.006;2024-03-02T13:14:54;9.18;;;6.15;;
41572;SDS011;27286;47.870;19.006;2024-03-02T13:17:20;8.48;;;6.60;;
41572;SDS011;27286;47.870;19.006;2024-03-02T13:22:21;10.07;;;7.60;;
41572;SDS011;27286;47.870;19.006;2024-03-02T13:24:47;9.50;;;6.97;;
41572;SDS011;27286;47.870;19.006;2024-03-02T13:27:13;6.90;;;5.05;;
41572;SDS011;27286;47.870;19.006;2024-03-02T13:29:38;9.75;;;8.18;;
41572;SDS011;27286;47.870;19.006;2024-03-02T13:32:04;7.00;;;6.03;;
41572;SDS011;27286;47.870;19.006;2024-03-02T13:34:30;10.13;;;7.10;;
41572;SDS011;27286;47.870;19.006;2024-03-02T13:36:55;6.82;;;5.35;;
41572;SDS011;27286;47.870;19.006;2024-03-02T13:39:20;10.65;;;6.28;;
41572;SDS011;27286;47.870;19.006;2024-03-02T13:41:46;9.70;;;6.85;;
41572;SDS011;27286;47.870;19.006;2024-03-02T13:44:18;9.65;;;6.65;;
41572;SDS011;27286;47.870;19.006;2024-03-02T13:46:44;9.18;;;7.72;;
41572;SDS011;27286;47.870;19.006;2024-03-02T13:49:10;9.40;;;7.13;;
41572;SDS011;27286;47.870;19.006;2024-03-02T13:51:36;12.15;;;7.97;;
41572;SDS011;27286;47.870;19.006;2024-03-02T13:54:02;16.17;;;9.00;;
41572;SDS011;27286;47.870;19.006;2024-03-02T13:56:28;11.65;;;9.98;;
41572;SDS011;27286;47.870;19.006;2024-03-02T13:58:54;10.27;;;6.97;;
41572;SDS011;27286;47.870;19.006;2024-03-02T14:01:19;10.90;;;7.68;;
41572;SDS011;27286;47.870;19.006;2024-03-02T14:03:45;9.05;;;7.13;;
41572;SDS011;27286;47.870;19.006;2024-03-02T14:06:11;10.93;;;7.45;;
41572;SDS011;27286;47.870;19.006;2024-03-02T14:08:37;11.18;;;8.00;;
41572;SDS011;27286;47.870;19.006;2024-03-02T14:11:02;12.75;;;8.48;;
41572;SDS011;27286;47.870;19.006;2024-03-02T14:13:28;13.52;;;7.90;;
41572;SDS011;27286;47.870;19.006;2024-03-02T14:15:54;12.68;;;8.43;;
41572;SDS011;27286;47.870;19.006;2024-03-02T14:18:19;11.88;;;9.25;;
41572;SDS011;27286;47.870;19.006;2024-03-02T14:20:46;13.15;;;8.55;;
41572;SDS011;27286;47.870;19.006;2024-03-02T14:23:17;10.13;;;7.80;;